Time;durP1;ratioP1;P1;durP2;ratioP2;P2;SDS_P1;SDS_P2;PMS_P1;PMS_P2;Temp;Humidity;BMP_temperature;BMP_pressure;BME280_temperature;BME280_humidity;BME280_pressure;Samples;Min_cycle;Max_cycle;Signal;HPM_P1;HPM_P2
2023/01/09 00:00:17;;;;;;;4.70;2.33;;;;;;;4.93;100.00;99304.66;5034985;28;20541;-51
2023/01/09 00:02:43;;;;;;;4.28;1.70;;;;;;;4.92;100.00;99300.41;5033706;28;20032;-50
2023/01/09 00:05:10;;;;;;;3.65;1.80;;;;;;;4.92;100.00;99308.06;5034706;28;20049;-51
2023/01/09 00:07:36;;;;;;;3.90;1.80;;;;;;;4.90;100.00;99310.53;5034473;28;20114;-51
2023/01/09 00:10:01;;;;;;;6.05;1.88;;;;;;;4.88;100.00;99302.00;5033954;28;20065;-50
2023/01/09 00:12:27;;;;;;;4.70;2.15;;;;;;;4.88;100.00;99298.56;5034521;28;20032;-49
2023/01/09 00:14:52;;;;;;;5.95;1.80;;;;;;;4.86;100.00;99313.84;5034506;28;20037;-51
2023/01/09 00:17:17;;;;;;;4.22;1.90;;;;;;;4.80;100.00;99310.25;5034118;28;20025;-50
2023/01/09 00:19:43;;;;;;;5.82;2.90;;;;;;;4.75;100.00;99312.66;5034265;28;20076;-48
2023/01/09 00:22:08;;;;;;;13.38;7.25;;;;;;;4.72;100.00;99321.09;5034234;28;20060;-50
2023/01/09 00:24:35;;;;;;;13.70;7.68;;;;;;;4.70;100.00;99314.22;5033633;28;20049;-51
2023/01/09 00:27:00;;;;;;;34.63;16.63;;;;;;;4.68;100.00;99326.09;5034252;28;20037;-50
2023/01/09 00:29:25;;;;;;;6.70;3.20;;;;;;;4.63;100.00;99323.41;5034026;28;20350;-50
2023/01/09 00:31:51;;;;;;;13.70;5.05;;;;;;;4.59;100.00;99319.88;5033525;28;20037;-51
2023/01/09 00:34:16;;;;;;;27.33;12.32;;;;;;;4.60;100.00;99319.06;5034335;28;20026;-51
2023/01/09 00:36:41;;;;;;;10.68;5.15;;;;;;;4.55;100.00;99318.06;5033681;28;20025;-51
2023/01/09 00:39:06;;;;;;;31.08;12.98;;;;;;;4.51;100.00;99323.06;5033496;28;20025;-50
2023/01/09 00:41:38;;;;;;;14.23;5.22;;;;;;;4.51;100.00;99318.81;5033672;28;20025;-51
2023/01/09 00:44:10;;;;;;;12.43;4.82;;;;;;;4.47;100.00;99316.09;5034025;28;20022;-50
2023/01/09 00:46:40;;;;;;;10.27;4.43;;;;;;;4.45;100.00;99318.63;5033117;28;20397;-48
2023/01/09 00:49:07;;;;;;;21.85;9.23;;;;;;;4.35;100.00;99319.16;5033983;28;20457;-50
2023/01/09 00:51:32;;;;;;;21.45;8.43;;;;;;;4.35;100.00;99312.41;5032819;28;20080;-50
2023/01/09 00:53:58;;;;;;;19.17;9.35;;;;;;;4.37;100.00;99313.28;5033849;28;20049;-49
2023/01/09 00:56:24;;;;;;;10.55;3.00;;;;;;;4.37;100.00;99317.53;5034013;28;20049;-51
2023/01/09 00:58:51;;;;;;;10.07;4.15;;;;;;;4.31;100.00;99313.09;5032885;28;20021;-51
2023/01/09 01:01:16;;;;;;;37.33;15.82;;;;;;;4.29;100.00;99328.34;5033822;28;20029;-51
2023/01/09 01:03:41;;;;;;;15.68;6.60;;;;;;;4.25;100.00;99324.00;5033401;28;20104;-48
2023/01/09 01:08:51;;;;;;;9.23;3.20;;;;;;;4.24;100.00;99327.34;5033563;28;20452;-47
2023/01/09 01:11:16;;;;;;;37.53;17.38;;;;;;;4.20;100.00;99325.53;5033147;28;20029;-49
2023/01/09 01:13:42;;;;;;;13.75;5.10;;;;;;;4.14;100.00;99330.44;5032272;28;20025;-50
2023/01/09 01:16:10;;;;;;;73.75;36.90;;;;;;;4.16;100.00;99323.72;5033575;28;20025;-49
2023/01/09 01:18:35;;;;;;;72.20;31.60;;;;;;;4.19;100.00;99325.50;5032905;28;20381;-49
2023/01/09 01:21:07;;;;;;;45.75;20.52;;;;;;;4.10;100.00;99329.47;5032894;28;20017;-50
2023/01/09 01:23:33;;;;;;;268.52;130.30;;;;;;;4.09;100.00;99331.97;5033277;28;20144;-51
2023/01/09 01:26:04;;;;;;;30.05;13.00;;;;;;;4.08;100.00;99348.09;5033179;28;20021;-50
2023/01/09 01:28:29;;;;;;;28.55;17.05;;;;;;;4.03;100.00;99341.97;5032344;28;20362;-50
2023/01/09 01:30:54;;;;;;;17.00;8.23;;;;;;;3.98;100.00;99340.97;5033239;28;20029;-51
2023/01/09 01:33:20;;;;;;;37.08;27.90;;;;;;;3.98;100.00;99351.16;5032936;28;20034;-49
2023/01/09 01:35:45;;;;;;;19.48;10.45;;;;;;;3.91;100.00;99358.63;5032275;28;20362;-50
2023/01/09 01:38:10;;;;;;;48.10;40.60;;;;;;;3.92;100.00;99349.31;5033229;28;20037;-50
2023/01/09 01:40:37;;;;;;;14.40;5.65;;;;;;;3.89;100.00;99347.53;5032116;28;20036;-48
2023/01/09 01:43:02;;;;;;;16.05;9.68;;;;;;;3.89;100.00;99347.53;5033096;28;20521;-49
2023/01/09 01:45:29;;;;;;;15.25;6.25;;;;;;;3.85;100.00;99348.25;5032729;28;20147;-49
2023/01/09 01:48:32;;;;;;;10.90;4.30;;;;;;;3.87;100.00;99351.69;5032167;28;20559;-49
2023/01/09 01:51:05;;;;;;;10.23;4.30;;;;;;;3.83;100.00;99354.97;4991403;28;20037;-51
2023/01/09 01:53:37;;;;;;;17.92;8.07;;;;;;;3.81;100.00;99364.25;4990880;28;20034;-51
2023/01/09 01:56:08;;;;;;;17.30;8.10;;;;;;;3.82;100.00;99363.41;5013945;28;20034;-51
2023/01/09 01:58:40;;;;;;;14.88;6.05;;;;;;;3.79;100.00;99368.41;5032587;28;20021;-50
2023/01/09 02:01:06;;;;;;;23.67;13.25;;;;;;;3.83;100.00;99366.84;5032787;28;20108;-51
2023/01/09 02:03:33;;;;;;;14.10;6.53;;;;;;;3.79;100.00;99358.22;5032249;28;20033;-50
2023/01/09 02:05:58;;;;;;;13.63;5.63;;;;;;;3.75;100.00;99364.03;5032729;28;20550;-51
2023/01/09 02:08:24;;;;;;;14.60;5.70;;;;;;;3.76;100.00;99355.59;5032586;28;20108;-48
2023/01/09 02:10:50;;;;;;;15.55;5.00;;;;;;;3.72;100.00;99366.47;5032060;28;20037;-50
2023/01/09 02:13:15;;;;;;;11.15;5.43;;;;;;;3.68;100.00;99362.09;5032736;28;20083;-50
2023/01/09 02:16:07;;;;;;;15.57;7.82;;;;;;;3.67;100.00;99363.78;5032111;28;20025;-48
2023/01/09 02:19:01;;;;;;;23.40;5.95;;;;;;;3.65;100.00;99360.31;5032503;28;20105;-50
2023/01/09 02:21:54;;;;;;;15.70;5.13;;;;;;;3.55;100.00;99364.25;5031033;28;20044;-50
2023/01/09 02:24:37;;;;;;;12.05;4.72;;;;;;;3.52;100.00;99369.22;5032371;28;20083;-50
2023/01/09 02:27:44;;;;;;;19.75;5.65;;;;;;;3.53;100.00;99365.00;5036849;28;20086;-51
2023/01/09 02:30:28;;;;;;;15.38;6.43;;;;;;;3.53;100.00;99365.88;5036071;28;20083;-50
2023/01/09 02:33:11;;;;;;;14.10;4.72;;;;;;;3.49;100.00;99364.03;5036727;28;20044;-51
2023/01/09 02:35:46;;;;;;;17.73;5.32;;;;;;;3.54;100.00;99365.06;5036129;28;20104;-50
2023/01/09 02:38:32;;;;;;;15.10;5.63;;;;;;;3.54;100.00;99366.72;5035884;28;20029;-50
2023/01/09 02:41:03;;;;;;;13.20;6.10;;;;;;;3.53;100.00;99368.41;5036596;28;20033;-48
2023/01/09 02:43:31;;;;;;;14.55;5.15;;;;;;;3.54;100.00;99357.41;5035775;28;20470;-50
2023/01/09 02:45:56;;;;;;;15.38;5.50;;;;;;;3.50;100.00;99362.34;5035771;28;20036;-51
2023/01/09 02:48:21;;;;;;;15.60;4.78;;;;;;;3.47;100.00;99352.91;5036146;28;20380;-51
2023/01/09 02:50:59;;;;;;;12.07;4.97;;;;;;;3.47;100.00;99365.66;5035889;28;20108;-49
2023/01/09 02:53:40;;;;;;;15.07;4.57;;;;;;;3.44;100.00;99365.56;5036361;28;20037;-50
2023/01/09 02:56:27;;;;;;;18.92;5.07;;;;;;;3.38;100.00;99353.50;5036328;28;20040;-50
2023/01/09 02:59:05;;;;;;;12.60;4.22;;;;;;;3.41;100.00;99350.19;5035458;28;20037;-49
2023/01/09 03:02:01;;;;;;;11.45;4.65;;;;;;;3.40;100.00;99353.53;5035909;28;20112;-49
2023/01/09 03:04:42;;;;;;;15.00;5.00;;;;;;;3.43;100.00;99343.44;5035050;28;20049;-50
2023/01/09 03:07:14;;;;;;;15.43;5.28;;;;;;;3.43;100.00;99348.53;5035356;28;20037;-50
2023/01/09 03:09:41;;;;;;;16.02;5.85;;;;;;;3.42;100.00;99344.25;5035734;28;20128;-50
2023/01/09 03:12:17;;;;;;;13.00;5.20;;;;;;;3.41;100.00;99350.19;5034948;28;20495;-49
2023/01/09 03:14:46;;;;;;;19.35;5.45;;;;;;;3.39;100.00;99336.53;5035430;28;20443;-51
2023/01/09 03:17:18;;;;;;;16.77;5.80;;;;;;;3.38;100.00;99344.97;5035622;28;20362;-51
2023/01/09 03:19:45;;;;;;;17.95;5.63;;;;;;;3.39;100.00;99347.56;5034832;28;20018;-50
2023/01/09 03:22:10;;;;;;;14.50;5.45;;;;;;;3.40;100.00;99358.63;5035901;28;20034;-51
2023/01/09 03:24:37;;;;;;;17.20;5.50;;;;;;;3.37;100.00;99354.31;5035266;28;20033;-50
2023/01/09 03:27:06;;;;;;;14.50;5.83;;;;;;;3.35;100.00;99360.16;5035138;28;20033;-47
2023/01/09 03:29:31;;;;;;;16.80;5.78;;;;;;;3.36;100.00;99359.34;5035308;28;20079;-51
2023/01/09 03:31:57;;;;;;;22.52;6.10;;;;;;;3.32;100.00;99357.50;5035281;28;20036;-49
2023/01/09 03:34:22;;;;;;;24.27;6.07;;;;;;;3.37;100.00;99361.06;5034968;28;20033;-50
2023/01/09 03:36:47;;;;;;;23.70;7.35;;;;;;;3.37;100.00;99363.59;5034760;28;20342;-50
2023/01/09 03:39:13;;;;;;;21.52;6.07;;;;;;;3.40;100.00;99359.50;5035178;28;20021;-48
2023/01/09 03:41:38;;;;;;;24.42;6.90;;;;;;;3.41;100.00;99355.28;5034715;28;20472;-49
2023/01/09 03:44:03;;;;;;;24.85;6.63;;;;;;;3.37;100.00;99355.97;5035395;28;20036;-50
2023/01/09 03:46:28;;;;;;;25.42;7.03;;;;;;;3.40;100.00;99348.44;5034656;28;20018;-49
2023/01/09 03:48:54;;;;;;;28.95;7.32;;;;;;;3.40;100.00;99358.63;5041049;28;20107;-49
2023/01/09 03:51:19;;;;;;;22.38;7.35;;;;;;;3.46;100.00;99353.75;5055100;28;20033;-50
2023/01/09 03:53:44;;;;;;;22.42;6.30;;;;;;;3.46;100.00;99357.16;5054493;28;20384;-50
2023/01/09 03:56:10;;;;;;;22.25;6.75;;;;;;;3.52;100.00;99351.41;5054564;28;20167;-50
2023/01/09 03:58:35;;;;;;;21.73;6.72;;;;;;;3.56;100.00;99349.81;5054589;28;20029;-50
2023/01/09 04:01:02;;;;;;;17.75;6.53;;;;;;;3.62;100.00;99355.97;5054862;28;20036;-51
2023/01/09 04:03:28;;;;;;;19.58;5.45;;;;;;;3.65;100.00;99350.13;5053882;28;20031;-49
2023/01/09 04:05:53;;;;;;;17.10;6.25;;;;;;;3.65;100.00;99349.28;5054544;28;20131;-49
2023/01/09 04:08:19;;;;;;;22.85;6.35;;;;;;;3.66;100.00;99348.47;5054069;28;20029;-48
2023/01/09 04:10:45;;;;;;;20.67;5.30;;;;;;;3.64;100.00;99343.28;5054497;28;20070;-47
2023/01/09 04:13:10;;;;;;;21.13;5.07;;;;;;;3.65;100.00;99346.72;5054617;28;20116;-50
2023/01/09 04:15:36;;;;;;;22.85;5.03;;;;;;;3.68;100.00;99346.81;5053442;28;20108;-50
2023/01/09 04:18:02;;;;;;;18.95;4.93;;;;;;;3.70;100.00;99355.38;5054442;28;20055;-51
2023/01/09 04:20:28;;;;;;;21.75;6.10;;;;;;;3.74;100.00;99357.22;5053912;28;20346;-49
2023/01/09 04:22:53;;;;;;;22.83;6.13;;;;;;;3.74;100.00;99355.53;5053810;28;20535;-49
2023/01/09 04:25:18;;;;;;;20.15;5.55;;;;;;;3.76;100.00;99356.44;5054521;28;20021;-50
2023/01/09 04:27:44;;;;;;;19.92;6.00;;;;;;;3.81;100.00;99346.41;5053788;28;20100;-50
2023/01/09 04:30:10;;;;;;;19.13;6.20;;;;;;;3.87;100.00;99349.13;5053773;28;20086;-50
2023/01/09 04:32:35;;;;;;;18.55;5.88;;;;;;;3.90;100.00;99350.91;5053862;28;20041;-51
2023/01/09 04:35:00;;;;;;;24.45;5.93;;;;;;;3.98;100.00;99358.81;5054225;28;20053;-50
2023/01/09 04:37:25;;;;;;;21.92;5.90;;;;;;;4.01;100.00;99358.94;5053781;28;20025;-51
2023/01/09 04:39:53;;;;;;;22.77;5.22;;;;;;;4.07;100.00;99352.34;5053858;28;20055;-51
2023/01/09 04:42:18;;;;;;;;;;;;;;;4.14;100.00;99360.19;5054265;28;20029;-49
2023/01/09 04:44:44;;;;;;;25.97;6.63;;;;;;;4.17;100.00;99353.50;5053228;28;20430;-51
2023/01/09 04:47:09;;;;;;;20.27;6.53;;;;;;;4.20;100.00;99352.72;5053271;28;20283;-51
2023/01/09 04:49:34;;;;;;;20.38;5.70;;;;;;;4.24;100.00;99346.91;5053188;28;20116;-51
2023/01/09 04:52:00;;;;;;;21.80;5.13;;;;;;;4.28;100.00;99347.03;5053517;28;20037;-50
2023/01/09 04:54:26;;;;;;;18.75;6.20;;;;;;;4.31;100.00;99353.06;5053872;28;20357;-50
2023/01/09 04:56:51;;;;;;;21.00;4.97;;;;;;;4.34;100.00;99353.13;5053309;28;20422;-51
2023/01/09 04:59:17;;;;;;;18.25;4.95;;;;;;;4.37;100.00;99343.03;5053236;28;20545;-49
2023/01/09 05:01:42;;;;;;;17.23;4.90;;;;;;;4.40;100.00;99343.13;5053315;28;20033;-51
2023/01/09 05:04:07;;;;;;;24.05;5.20;;;;;;;4.43;100.00;99338.13;5053209;28;20025;-50
2023/01/09 05:06:33;;;;;;;26.35;5.38;;;;;;;4.47;100.00;99334.84;5052970;28;20033;-50
2023/01/09 05:08:59;;;;;;;25.10;6.20;;;;;;;4.54;100.00;99338.44;5053751;28;20021;-51
2023/01/09 05:11:24;;;;;;;20.25;5.00;;;;;;;4.57;100.00;99339.41;5053390;28;20067;-51
2023/01/09 05:13:50;;;;;;;20.73;5.60;;;;;;;4.60;100.00;99352.25;5052944;28;20044;-50
2023/01/09 05:16:15;;;;;;;19.83;5.05;;;;;;;4.61;100.00;99346.31;5053476;28;20460;-51
2023/01/09 05:18:40;;;;;;;21.35;5.78;;;;;;;4.66;100.00;99346.47;5052180;28;20104;-50
2023/01/09 05:21:06;;;;;;;18.40;5.68;;;;;;;4.68;100.00;99344.81;5053458;28;20025;-48
2023/01/09 05:23:31;;;;;;;20.17;5.30;;;;;;;4.71;100.00;99350.03;5053093;28;20071;-51
2023/01/09 05:25:56;;;;;;;23.40;4.93;;;;;;;4.73;100.00;99338.16;5052762;28;20040;-51
2023/01/09 05:28:22;;;;;;;25.33;5.70;;;;;;;4.75;100.00;99335.63;5053239;28;20441;-50
2023/01/09 05:30:47;;;;;;;27.90;5.47;;;;;;;4.79;100.00;99340.03;5052735;28;20029;-50
2023/01/09 05:33:13;;;;;;;21.23;5.20;;;;;;;4.81;100.00;99338.38;5052603;28;20079;-49
2023/01/09 05:35:38;;;;;;;20.00;4.75;;;;;;;4.84;100.00;99333.38;5052985;28;20380;-51
2023/01/09 05:38:03;;;;;;;22.42;5.15;;;;;;;4.86;100.00;99334.25;5052988;28;20027;-49
2023/01/09 05:40:29;;;;;;;16.75;4.72;;;;;;;4.91;100.00;99334.41;5052217;28;20025;-50
2023/01/09 05:42:54;;;;;;;29.33;5.32;;;;;;;4.91;100.00;99335.25;5053043;28;20052;-49
2023/01/09 05:45:20;;;;;;;18.13;4.55;;;;;;;4.91;100.00;99332.69;5052734;28;20021;-50
2023/01/09 05:47:45;;;;;;;19.98;4.32;;;;;;;4.94;100.00;99334.47;5052054;28;20380;-47
2023/01/09 05:50:12;;;;;;;27.08;5.38;;;;;;;4.97;100.00;99336.25;5053128;28;20465;-51
2023/01/09 05:52:37;;;;;;;27.20;5.20;;;;;;;4.97;100.00;99331.13;5052434;28;20032;-51
2023/01/09 05:55:03;;;;;;;18.52;4.82;;;;;;;4.95;100.00;99331.97;5052756;28;20529;-51
2023/01/09 05:57:29;;;;;;;20.10;5.43;;;;;;;5.00;100.00;99336.34;5052451;28;20436;-50
2023/01/09 05:59:54;;;;;;;24.00;4.70;;;;;;;5.00;100.00;99336.34;5052365;28;20057;-50
2023/01/09 06:02:19;;;;;;;31.27;5.43;;;;;;;5.01;100.00;99327.84;5052135;28;20029;-49
2023/01/09 06:04:45;;;;;;;16.90;4.65;;;;;;;5.01;100.00;99327.84;5052348;28;20373;-51
2023/01/09 06:07:10;;;;;;;22.95;4.35;;;;;;;5.03;100.00;99326.22;5052721;28;20070;-51
2023/01/09 06:09:35;;;;;;;21.48;4.68;;;;;;;5.04;100.00;99333.06;5051929;28;20102;-50
2023/01/09 06:12:01;;;;;;;21.10;4.60;;;;;;;5.04;100.00;99330.50;5052637;28;20035;-50
2023/01/09 06:14:26;;;;;;;17.65;4.53;;;;;;;5.01;100.00;99323.63;5052336;28;20025;-51
2023/01/09 06:16:51;;;;;;;23.90;5.32;;;;;;;4.99;100.00;99319.28;5051746;28;20095;-50
2023/01/09 06:19:17;;;;;;;26.05;4.90;;;;;;;5.02;100.00;99324.47;5052723;28;20388;-49
2023/01/09 06:21:42;;;;;;;22.73;4.85;;;;;;;5.03;100.00;99321.94;5052234;28;20070;-50
2023/01/09 06:24:08;;;;;;;23.83;4.88;;;;;;;5.02;100.00;99324.47;5052121;28;20434;-50
2023/01/09 06:26:33;;;;;;;26.90;5.03;;;;;;;5.07;100.00;99325.47;5052296;28;20503;-47
2023/01/09 06:29:00;;;;;;;25.02;5.20;;;;;;;5.05;100.00;99322.03;5051777;28;20017;-50
2023/01/09 06:31:25;;;;;;;22.25;5.85;;;;;;;5.08;100.00;99320.38;5052273;28;20083;-51
2023/01/09 06:33:51;;;;;;;26.38;4.88;;;;;;;5.08;100.00;99320.38;5052164;28;20429;-51
2023/01/09 06:36:17;;;;;;;29.10;5.38;;;;;;;5.15;100.00;99315.44;5052014;28;20033;-48
2023/01/09 06:38:42;;;;;;;24.20;5.00;;;;;;;5.19;100.00;99323.25;5052217;28;20120;-51
2023/01/09 06:41:07;;;;;;;27.23;4.75;;;;;;;5.21;100.00;99321.59;5052357;28;20033;-50
2023/01/09 06:43:33;;;;;;;26.35;4.80;;;;;;;5.24;100.00;99331.91;5051690;28;20032;-48
2023/01/09 06:45:58;;;;;;;29.55;5.80;;;;;;;5.27;100.00;99321.75;5052370;28;20503;-50
2023/01/09 06:48:23;;;;;;;23.13;5.13;;;;;;;5.35;100.00;99316.00;5052248;28;20021;-49
2023/01/09 06:50:50;;;;;;;17.83;4.40;;;;;;;5.38;100.00;99323.72;5051616;28;20029;-48
2023/01/09 06:53:15;;;;;;;21.20;4.85;;;;;;;5.43;100.00;99325.56;5052200;28;20154;-51
2023/01/09 06:55:41;;;;;;;28.88;5.05;;;;;;;5.49;100.00;99336.75;5051816;28;20052;-50
2023/01/09 06:58:06;;;;;;;29.02;5.03;;;;;;;5.51;100.00;99335.13;5051737;28;20487;-51
2023/01/09 07:00:31;;;;;;;17.60;4.30;;;;;;;5.53;100.00;99334.34;5051820;28;20025;-50
2023/01/09 07:02:56;;;;;;;21.45;4.28;;;;;;;5.56;100.00;99338.66;5052213;28;20383;-51
2023/01/09 07:05:22;;;;;;;25.33;4.47;;;;;;;5.53;100.00;99325.81;5051484;28;20511;-51
2023/01/09 07:07:48;;;;;;;19.63;4.50;;;;;;;5.53;100.00;99334.34;5051900;28;20127;-49
2023/01/09 07:10:14;;;;;;;22.20;4.60;;;;;;;5.53;100.00;99341.16;5052029;28;20124;-51
2023/01/09 07:12:39;;;;;;;21.70;4.50;;;;;;;5.52;100.00;99342.81;5054766;28;20029;-50
2023/01/09 07:15:05;;;;;;;22.63;4.28;;;;;;;5.48;100.00;99335.91;5055723;28;20483;-50
2023/01/09 07:17:31;;;;;;;17.65;4.45;;;;;;;5.46;100.00;99347.78;5055038;28;20082;-52
2023/01/09 07:19:57;;;;;;;18.70;4.75;;;;;;;5.42;100.00;99345.97;5055293;28;20024;-50
2023/01/09 07:22:22;;;;;;;26.00;5.20;;;;;;;5.44;100.00;99354.53;5055790;28;20051;-51
2023/01/09 07:24:47;;;;;;;18.27;4.93;;;;;;;5.41;100.00;99360.44;5055136;28;20079;-51
2023/01/09 07:27:13;;;;;;;16.55;4.90;;;;;;;5.43;100.00;99360.47;5054896;28;20524;-50
2023/01/09 07:29:38;;;;;;;26.55;5.90;;;;;;;5.42;100.00;99366.41;5055125;28;20021;-50
2023/01/09 07:32:03;;;;;;;19.98;5.00;;;;;;;5.39;100.00;99371.44;5055214;28;20086;-50
2023/01/09 07:34:29;;;;;;;15.63;4.53;;;;;;;5.37;100.00;99375.63;5054619;28;20044;-50
2023/01/09 07:36:54;;;;;;;23.85;6.40;;;;;;;5.33;100.00;99384.06;5055226;28;20080;-50
2023/01/09 07:39:19;;;;;;;25.25;5.75;;;;;;;5.33;100.00;99391.72;5054781;28;20028;-51
2023/01/09 07:41:45;;;;;;;19.10;4.97;;;;;;;5.27;100.00;99390.72;5054803;28;20387;-50
2023/01/09 07:44:10;;;;;;;18.92;5.50;;;;;;;5.26;100.00;99385.56;5054762;28;20035;-50
2023/01/09 07:46:36;;;;;;;20.30;6.15;;;;;;;5.23;100.00;99399.13;5054399;28;20109;-51
2023/01/09 07:49:01;;;;;;;23.00;5.88;;;;;;;5.20;100.00;99400.72;5055169;28;20029;-50
2023/01/09 07:51:27;;;;;;;27.85;6.43;;;;;;;5.17;100.00;99401.50;5054788;28;20460;-51
2023/01/09 07:53:52;;;;;;;21.10;6.68;;;;;;;5.17;100.00;99395.53;5054361;28;20372;-47
2023/01/09 07:56:17;;;;;;;25.40;6.40;;;;;;;5.16;100.00;99402.31;5055148;28;20020;-49
2023/01/09 07:58:43;;;;;;;29.67;6.97;;;;;;;5.18;100.00;99413.47;5054484;28;20500;-50
2023/01/09 08:01:08;;;;;;;26.65;7.22;;;;;;;5.17;100.00;99408.31;5054165;28;20020;-50
2023/01/09 08:03:33;;;;;;;35.20;11.38;;;;;;;5.16;100.00;99411.69;5054576;28;20032;-50
2023/01/09 08:05:59;;;;;;;29.73;8.32;;;;;;;5.14;100.00;99411.66;5054386;28;20041;-48
2023/01/09 08:08:24;;;;;;;25.45;7.70;;;;;;;5.16;100.00;99417.66;5054311;28;20021;-50
2023/01/09 08:10:50;;;;;;;35.58;12.48;;;;;;;5.15;100.00;99426.16;5054274;28;20030;-47
2023/01/09 08:13:15;;;;;;;26.02;8.90;;;;;;;5.15;100.00;99426.16;5054467;28;20028;-47
2023/01/09 08:15:40;;;;;;;117.05;45.15;;;;;;;5.16;100.00;99425.31;5053647;28;20025;-51
2023/01/09 08:18:06;;;;;;;33.92;9.00;;;;;;;5.14;100.00;99442.28;5054631;28;20114;-48
2023/01/09 08:20:31;;;;;;;26.05;9.50;;;;;;;5.16;100.00;99443.19;5054044;28;20029;-51
2023/01/09 08:22:56;;;;;;;26.40;7.80;;;;;;;5.18;100.00;99453.47;5053968;28;20025;-50
2023/01/09 08:25:22;;;;;;;25.13;9.18;;;;;;;5.17;100.00;99457.69;5054401;28;20415;-50
2023/01/09 08:27:47;;;;;;;34.58;9.13;;;;;;;5.17;100.00;99452.59;5053866;28;20108;-50
2023/01/09 08:30:13;;;;;;;26.88;10.77;;;;;;;5.18;100.00;99461.13;5053798;28;20055;-51
2023/01/09 08:32:40;;;;;;;24.20;12.35;;;;;;;5.17;100.00;99465.34;5054034;28;20037;-50
2023/01/09 08:35:06;;;;;;;29.20;12.18;;;;;;;5.19;100.00;99479.06;5054205;28;20079;-49
2023/01/09 08:37:31;;;;;;;28.27;13.50;;;;;;;5.19;100.00;99475.63;5053366;28;20029;-47
2023/01/09 08:39:56;;;;;;;27.75;8.50;;;;;;;5.22;100.00;99481.69;5054174;28;20027;-48
2023/01/09 08:47:50;;;;;;;19.90;8.48;;;;;;;5.30;100.00;99484.47;5053656;28;20063;-50
2023/01/09 08:50:15;;;;;;;25.98;9.02;;;;;;;5.28;100.00;99499.75;5053540;28;20052;-50
2023/01/09 08:52:40;;;;;;;24.02;10.00;;;;;;;5.26;100.00;99506.50;5053535;28;20352;-51
2023/01/09 08:55:06;;;;;;;25.65;10.10;;;;;;;5.26;100.00;99505.63;5053585;28;20025;-50
2023/01/09 08:57:31;;;;;;;23.80;9.02;;;;;;;5.27;100.00;99521.00;5053072;28;20021;-51
2023/01/09 08:59:57;;;;;;;26.25;10.10;;;;;;;5.25;100.00;99522.66;5054014;28;20032;-50
2023/01/09 09:02:22;;;;;;;30.45;11.13;;;;;;;5.25;100.00;99525.22;5053587;28;20021;-50
2023/01/09 09:04:51;;;;;;;28.85;11.48;;;;;;;5.25;100.00;99527.78;5052670;28;20400;-50
2023/01/09 09:07:17;;;;;;;29.70;11.23;;;;;;;5.24;100.00;99520.94;5053627;28;20478;-51
2023/01/09 09:09:42;;;;;;;29.38;12.05;;;;;;;5.24;100.00;99533.69;5053053;28;20100;-51
2023/01/09 09:12:07;;;;;;;24.48;11.32;;;;;;;5.25;100.00;99548.22;5052998;28;20039;-49
2023/01/09 09:17:16;;;;;;;26.10;10.65;;;;;;;5.28;100.00;99553.41;5053683;28;20039;-51
2023/01/09 09:19:41;;;;;;;28.33;11.30;;;;;;;5.31;100.00;99556.84;5052590;28;20100;-51
2023/01/09 09:22:07;;;;;;;28.77;11.65;;;;;;;5.30;100.00;99555.13;5053065;28;20465;-51
2023/01/09 09:24:32;;;;;;;22.83;11.45;;;;;;;5.26;100.00;99560.13;5053187;28;20037;-50
2023/01/09 09:26:57;;;;;;;32.92;12.30;;;;;;;5.27;100.00;99571.25;5052610;28;20017;-50
2023/01/09 09:29:23;;;;;;;30.98;12.63;;;;;;;5.27;100.00;99569.53;5053120;28;20032;-51
2023/01/09 09:31:48;;;;;;;30.77;13.73;;;;;;;5.32;100.00;99584.13;5052297;28;20083;-50
2023/01/09 09:34:14;;;;;;;26.35;15.85;;;;;;;5.33;100.00;99584.16;5052708;28;20040;-50
2023/01/09 09:36:39;;;;;;;29.45;11.82;;;;;;;5.36;100.00;99591.06;5052526;28;20028;-50
2023/01/09 09:39:06;;;;;;;29.15;15.82;;;;;;;5.37;100.00;99597.91;5052667;28;20037;-50
2023/01/09 09:44:52;;;;;;;31.13;11.20;;;;;;;5.44;100.00;99625.41;5052481;28;20439;-50
2023/01/09 09:47:42;;;;;;;33.80;13.40;;;;;;;5.47;100.00;99625.47;5052369;28;20108;-51
2023/01/09 09:50:26;;;;;;;28.77;11.40;;;;;;;5.47;100.00;99635.69;5053003;28;20033;-50
2023/01/09 09:53:18;;;;;;;32.45;11.85;;;;;;;5.44;100.00;99639.03;5051974;28;20036;-49
2023/01/09 09:55:46;;;;;;;31.33;13.50;;;;;;;5.42;100.00;99635.59;5049394;28;20045;-50
2023/01/09 09:58:21;;;;;;;33.85;12.73;;;;;;;5.41;100.00;99646.63;5052540;28;20388;-49
2023/01/09 10:00:48;;;;;;;30.90;12.52;;;;;;;5.44;100.00;99650.94;5052068;28;20052;-51
2023/01/09 10:03:37;;;;;;;33.22;12.73;;;;;;;5.47;100.00;99650.19;5052847;28;20025;-48
2023/01/09 10:06:08;;;;;;;32.83;13.15;;;;;;;5.39;100.00;99647.38;5052266;28;20511;-49
2023/01/09 10:08:48;;;;;;;35.00;12.93;;;;;;;5.40;100.00;99656.78;5052117;28;20065;-49
2023/01/09 10:11:38;;;;;;;34.22;14.48;;;;;;;5.44;100.00;99671.41;5052376;28;20048;-45
2023/01/09 10:14:03;;;;;;;33.90;14.88;;;;;;;5.62;100.00;99673.66;5052340;28;20067;-49
2023/01/09 10:16:41;;;;;;;52.05;19.98;;;;;;;5.86;100.00;99681.19;5052309;28;20056;-49
2023/01/09 10:19:28;;;;;;;39.67;19.42;;;;;;;5.88;100.00;99679.53;5052542;28;20035;-48
2023/01/09 10:22:12;;;;;;;37.55;15.75;;;;;;;5.86;100.00;99685.44;5052125;28;20067;-49
2023/01/09 10:24:52;;;;;;;32.47;14.05;;;;;;;5.75;100.00;99677.44;5052244;28;20021;-50
2023/01/09 10:27:59;;;;;;;37.60;16.00;;;;;;;5.72;100.00;99678.22;5052535;28;20091;-49
2023/01/09 10:30:48;;;;;;;25.95;15.13;;;;;;;5.80;100.00;99703.13;5041172;28;20045;-49
2023/01/09 10:33:45;;;;;;;36.15;16.75;;;;;;;5.88;100.00;99700.00;5052222;28;20033;-49
2023/01/09 10:36:14;;;;;;;37.53;15.93;;;;;;;5.76;100.00;99702.19;5039836;28;20389;-49
2023/01/09 10:38:44;;;;;;;51.00;22.38;;;;;;;5.69;100.00;99695.16;5052191;28;20036;-48
2023/01/09 10:41:21;;;;;;;28.70;12.65;;;;;;;5.66;100.00;99710.41;5052211;28;20029;-48
2023/01/09 10:44:03;;;;;;;36.60;17.58;;;;;;;5.65;100.00;99706.97;5051745;28;20029;-48
2023/01/09 10:46:42;;;;;;;34.78;16.48;;;;;;;5.61;100.00;99716.22;5053830;28;20033;-50
2023/01/09 10:49:14;;;;;;;43.40;19.02;;;;;;;5.60;100.00;99722.19;5056136;28;20052;-45
2023/01/09 10:51:58;;;;;;;37.92;16.58;;;;;;;5.63;100.00;99725.63;5056099;28;20468;-48
2023/01/09 10:54:24;;;;;;;32.63;15.43;;;;;;;5.71;100.00;99713.97;5056147;28;20037;-48
2023/01/09 10:56:55;;;;;;;37.42;16.30;;;;;;;5.96;100.00;99727.50;5055446;28;20017;-45
2023/01/09 10:59:22;;;;;;;40.42;19.58;;;;;;;5.99;100.00;99723.38;5056105;28;20029;-50
2023/01/09 11:01:47;;;;;;;30.73;15.32;;;;;;;5.97;100.00;99724.13;5055416;28;20025;-50
2023/01/09 11:04:24;;;;;;;32.65;13.63;;;;;;;6.00;100.00;99742.16;5055206;28;20029;-49
2023/01/09 11:06:57;;;;;;;43.25;21.05;;;;;;;6.07;100.00;99737.25;5055805;28;20045;-50
2023/01/09 11:09:23;;;;;;;44.65;25.15;;;;;;;6.13;100.00;99736.56;5055760;28;20037;-49
2023/01/09 11:11:48;;;;;;;32.00;15.32;;;;;;;6.19;100.00;99734.19;5055056;28;20036;-49
2023/01/09 11:14:21;;;;;;;32.58;15.68;;;;;;;6.25;100.00;99734.38;5055814;28;20127;-46
2023/01/09 11:16:51;;;;;;;44.92;24.55;;;;;;;6.38;100.00;99730.47;5055183;28;20032;-48
2023/01/09 11:19:17;;;;;;;45.58;23.35;;;;;;;6.57;100.00;99733.53;5055294;28;20033;-48
2023/01/09 11:21:43;;;;;;;47.67;19.08;;;;;;;6.59;100.00;99731.91;5055225;28;20075;-48
2023/01/09 11:24:26;;;;;;;51.33;24.92;;;;;;;6.62;100.00;99742.22;5055664;28;20021;-49
2023/01/09 11:27:13;;;;;;;48.08;21.75;;;;;;;6.73;100.00;99734.84;5055257;28;20530;-49
2023/01/09 11:29:39;;;;;;;45.63;17.97;;;;;;;6.95;100.00;99748.25;5054862;28;20067;-47
2023/01/09 11:32:05;;;;;;;42.85;23.15;;;;;;;7.23;100.00;99748.13;5055035;28;20025;-49
2023/01/09 11:34:33;;;;;;;39.47;19.73;;;;;;;7.43;100.00;99754.56;5055264;28;20025;-49
2023/01/09 11:37:08;;;;;;;36.08;15.88;;;;;;;7.41;100.00;99746.81;5055083;28;20025;-47
2023/01/09 11:39:40;;;;;;;42.00;19.42;;;;;;;7.42;100.00;99763.94;5054477;28;20025;-47
2023/01/09 11:42:17;;;;;;;40.90;16.02;;;;;;;7.48;100.00;99770.94;5055455;28;20028;-47
2023/01/09 11:44:42;;;;;;;39.03;15.13;;;;;;;7.43;100.00;99769.94;5054673;28;20480;-48